Time;durP1;ratioP1;P1;durP2;ratioP2;P2;SDS_P1;SDS_P2;PMS_P1;PMS_P2;Temp;Humidity;BMP_temperature;BMP_pressure;BME280_temperature;BME280_humidity;BME280_pressure;Samples;Min_cycle;Max_cycle;Signal;HPM_P1;HPM_P2
2023/09/03 00:00:54;;;;;;;13.75;12.45;;;13.30;99.90;;;;;;5044107;28;20044;-75
2023/09/03 00:03:20;;;;;;;12.18;11.07;;;13.30;99.90;;;;;;5042812;28;20052;-75
2023/09/03 00:05:48;;;;;;;11.65;10.55;;;13.30;99.90;;;;;;5050064;28;20041;-75
2023/09/03 00:08:13;;;;;;;10.75;9.75;;;13.30;99.90;;;;;;5056286;28;20048;-75
2023/09/03 00:10:39;;;;;;;10.93;9.85;;;13.30;99.90;;;;;;5048545;28;20056;-75
2023/09/03 00:13:05;;;;;;;11.05;10.05;;;13.30;99.90;;;;;;5032470;28;20102;-75
2023/09/03 00:15:31;;;;;;;10.32;9.35;;;13.30;99.90;;;;;;5044286;28;20547;-75
2023/09/03 00:17:57;;;;;;;9.73;8.68;;;13.30;99.90;;;;;;5037420;28;20041;-74
2023/09/03 00:20:23;;;;;;;10.48;9.40;;;13.20;99.90;;;;;;5062730;28;20059;-75
2023/09/03 00:22:48;;;;;;;8.88;8.05;;;13.20;99.90;;;;;;5057656;28;20040;-74
2023/09/03 00:25:14;;;;;;;8.48;7.68;;;13.20;99.90;;;;;;5049211;28;20049;-75
2023/09/03 00:27:40;;;;;;;9.30;8.07;;;13.10;99.90;;;;;;5056343;28;20055;-75
2023/09/03 00:30:06;;;;;;;9.00;8.10;;;13.10;99.90;;;;;;5046543;28;20032;-75
2023/09/03 00:32:32;;;;;;;13.65;11.88;;;13.10;99.90;;;;;;5040922;28;20064;-75
2023/09/03 00:34:58;;;;;;;16.02;13.35;;;13.10;99.90;;;;;;5061065;28;20038;-74
2023/09/03 00:37:24;;;;;;;15.05;11.20;;;13.00;99.90;;;;;;5053038;28;20520;-74
2023/09/03 00:39:50;;;;;;;12.38;10.25;;;12.90;99.90;;;;;;5055243;28;20077;-75
2023/09/03 00:42:16;;;;;;;15.02;13.27;;;12.70;99.90;;;;;;5045621;28;20871;-75
2023/09/03 00:44:44;;;;;;;26.58;18.73;;;12.70;99.90;;;;;;5038270;28;20041;-75
2023/09/03 00:47:10;;;;;;;21.67;16.92;;;12.50;99.90;;;;;;5046539;28;20049;-75
2023/09/03 00:49:43;;;;;;;11.57;10.40;;;12.40;99.90;;;;;;5056268;28;20090;-74
2023/09/03 00:52:12;;;;;;;11.13;10.10;;;12.40;99.90;;;;;;5045004;28;20045;-74
2023/09/03 00:54:39;;;;;;;14.97;13.37;;;12.30;99.90;;;;;;5051196;28;20040;-74
2023/09/03 00:57:05;;;;;;;13.63;12.27;;;12.20;99.90;;;;;;5060141;28;20109;-74
2023/09/03 00:59:32;;;;;;;14.45;12.75;;;12.10;99.90;;;;;;5064434;28;20676;-74
2023/09/03 01:01:58;;;;;;;13.70;12.18;;;12.20;99.90;;;;;;5047914;28;20040;-74
2023/09/03 01:04:24;;;;;;;14.23;12.82;;;12.20;99.90;;;;;;5067774;28;20048;-74
2023/09/03 01:06:51;;;;;;;40.97;17.45;;;12.30;99.90;;;;;;5079852;28;20264;-74
2023/09/03 01:09:27;;;;;;;13.10;11.88;;;12.30;99.90;;;;;;5068421;28;20048;-75
2023/09/03 01:12:17;;;;;;;11.98;10.88;;;12.30;99.90;;;;;;5093591;27;20044;-74
2023/09/03 01:14:50;;;;;;;13.63;12.32;;;12.40;99.90;;;;;;5068980;28;20079;-75
2023/09/03 01:17:34;;;;;;;13.30;12.10;;;12.40;99.90;;;;;;5048103;28;20044;-74
2023/09/03 01:20:10;;;;;;;9.90;8.98;;;12.50;99.90;;;;;;5084897;27;20055;-75
2023/09/03 01:23:04;;;;;;;9.75;8.77;;;12.50;99.90;;;;;;5039449;28;20041;-75
2023/09/03 01:25:32;;;;;;;8.25;7.45;;;12.60;99.90;;;;;;5061170;28;20406;-75
2023/09/03 01:28:20;;;;;;;7.78;7.03;;;12.40;99.90;;;;;;5059365;28;20707;-74
2023/09/03 01:30:47;;;;;;;8.68;7.15;;;12.40;99.90;;;;;;5049160;28;20063;-75
2023/09/03 01:33:15;;;;;;;9.35;8.30;;;12.40;99.90;;;;;;5067253;28;20037;-74
2023/09/03 01:35:45;;;;;;;10.45;9.45;;;12.40;99.90;;;;;;5068108;28;20045;-74
2023/09/03 01:38:14;;;;;;;12.52;11.10;;;12.40;99.90;;;;;;5057820;28;20051;-75
2023/09/03 01:40:46;;;;;;;13.27;11.98;;;12.40;99.90;;;;;;5049080;28;20036;-75
2023/09/03 01:43:12;;;;;;;12.25;11.05;;;12.40;99.90;;;;;;5066391;28;20047;-75
2023/09/03 01:45:48;;;;;;;20.02;17.95;;;12.40;99.90;;;;;;5050626;28;20406;-75
2023/09/03 01:48:38;;;;;;;20.35;18.20;;;12.40;99.90;;;;;;5061151;28;20048;-75
2023/09/03 01:51:22;;;;;;;14.88;13.38;;;12.40;99.90;;;;;;5063600;28;20043;-75
2023/09/03 01:53:54;;;;;;;18.13;16.05;;;12.30;99.90;;;;;;5060997;28;20056;-75
2023/09/03 01:56:22;;;;;;;22.73;17.33;;;12.20;99.90;;;;;;5090083;27;20073;-75
2023/09/03 01:58:53;;;;;;;14.40;12.77;;;12.20;99.90;;;;;;5056482;28;20048;-75
2023/09/03 02:01:25;;;;;;;21.88;15.63;;;12.20;99.90;;;;;;5057465;28;20098;-75
2023/09/03 02:03:52;;;;;;;25.52;17.55;;;12.10;99.90;;;;;;5032909;28;20044;-75
2023/09/03 02:06:18;;;;;;;20.58;15.32;;;12.00;99.90;;;;;;5043843;28;20447;-75
2023/09/03 02:08:47;;;;;;;10.65;9.55;;;12.00;99.90;;;;;;5057504;28;20131;-74
2023/09/03 02:11:13;;;;;;;14.10;10.63;;;11.90;99.90;;;;;;5061666;28;20072;-74
2023/09/03 02:13:39;;;;;;;10.38;9.38;;;11.90;99.90;;;;;;5052791;28;20083;-75
2023/09/03 02:16:05;;;;;;;21.40;15.80;;;12.00;99.90;;;;;;5040209;28;20037;-75
2023/09/03 02:18:30;;;;;;;26.35;15.50;;;12.00;99.90;;;;;;5058447;28;20040;-75
2023/09/03 02:20:56;;;;;;;33.08;16.55;;;12.00;99.90;;;;;;5057367;28;20032;-75
2023/09/03 02:23:24;;;;;;;13.50;11.05;;;11.90;99.90;;;;;;5044787;28;20079;-74
2023/09/03 02:26:03;;;;;;;18.00;12.32;;;12.00;99.90;;;;;;5053058;28;20456;-75
2023/09/03 02:28:29;;;;;;;52.58;16.92;;;12.00;99.90;;;;;;5056678;28;20083;-75
2023/09/03 02:30:55;;;;;;;57.17;17.08;;;11.90;99.90;;;;;;5040745;28;20068;-75
2023/09/03 02:33:22;;;;;;;64.80;18.40;;;11.90;99.90;;;;;;5055028;28;20166;-75
2023/09/03 02:35:48;;;;;;;14.73;12.55;;;11.90;99.90;;;;;;5035056;28;20192;-75
2023/09/03 02:38:14;;;;;;;13.40;12.02;;;11.90;99.90;;;;;;5053518;28;20119;-75
2023/09/03 02:40:40;;;;;;;13.00;11.70;;;11.80;99.90;;;;;;5039898;28;20147;-75
2023/09/03 02:43:06;;;;;;;15.05;13.65;;;11.80;99.90;;;;;;5047762;28;20048;-75
2023/09/03 02:45:32;;;;;;;15.15;13.65;;;11.80;99.90;;;;;;5056706;28;20041;-75
2023/09/03 02:47:58;;;;;;;17.45;15.70;;;11.90;99.90;;;;;;5054381;28;20036;-75
2023/09/03 02:50:26;;;;;;;19.05;17.15;;;12.00;99.90;;;;;;5051264;28;20047;-75
2023/09/03 02:52:52;;;;;;;17.00;15.40;;;11.90;99.90;;;;;;5056763;28;20048;-75
2023/09/03 02:55:17;;;;;;;22.45;14.70;;;12.00;99.90;;;;;;5057860;28;20085;-75
2023/09/03 02:57:43;;;;;;;15.52;13.80;;;12.00;99.90;;;;;;5044023;28;20453;-75
2023/09/03 03:00:10;;;;;;;58.60;21.92;;;12.00;99.90;;;;;;5039038;28;20033;-75
2023/09/03 03:02:36;;;;;;;13.77;10.57;;;12.00;99.90;;;;;;5070948;28;20041;-75
2023/09/03 03:05:02;;;;;;;12.30;11.20;;;12.00;99.90;;;;;;5038304;28;20052;-75
2023/09/03 03:07:28;;;;;;;11.52;10.38;;;11.90;99.90;;;;;;5054733;28;20070;-75
2023/09/03 03:09:54;;;;;;;14.10;12.88;;;11.90;99.90;;;;;;5049191;28;20045;-76
2023/09/03 03:12:20;;;;;;;13.40;12.20;;;11.90;99.90;;;;;;5066561;28;20102;-76
2023/09/03 03:14:46;;;;;;;14.52;13.32;;;11.90;99.90;;;;;;5047541;28;20578;-76
2023/09/03 03:17:12;;;;;;;12.07;10.98;;;11.90;99.90;;;;;;5056728;28;20052;-76
2023/09/03 03:19:37;;;;;;;12.77;11.68;;;11.90;99.90;;;;;;5049659;28;20037;-76
2023/09/03 03:22:03;;;;;;;14.82;13.52;;;11.90;99.90;;;;;;5050396;28;20064;-76
2023/09/03 03:24:29;;;;;;;13.60;12.20;;;11.90;99.90;;;;;;5054250;28;20300;-76
2023/09/03 03:26:55;;;;;;;26.73;17.98;;;11.90;99.90;;;;;;5057546;28;20541;-76
2023/09/03 03:29:21;;;;;;;25.40;17.48;;;11.80;99.90;;;;;;5055423;28;20292;-76
2023/09/03 03:31:47;;;;;;;13.68;12.32;;;11.70;99.90;;;;;;5050052;28;20415;-76
2023/09/03 03:34:13;;;;;;;12.68;11.48;;;11.60;99.90;;;;;;5058674;28;20049;-76
2023/09/03 03:36:41;;;;;;;14.95;13.52;;;11.50;99.90;;;;;;5040832;28;20053;-76
2023/09/03 03:39:07;;;;;;;18.50;13.70;;;11.50;99.90;;;;;;5055749;28;20079;-76
2023/09/03 03:41:32;;;;;;;12.70;11.50;;;11.50;99.90;;;;;;5036967;28;20052;-76
2023/09/03 03:43:58;;;;;;;13.13;11.93;;;11.50;99.90;;;;;;5042474;28;20040;-76
2023/09/03 03:46:24;;;;;;;13.15;11.95;;;11.50;99.90;;;;;;5063434;28;20049;-76
2023/09/03 03:48:50;;;;;;;14.43;13.02;;;11.50;99.90;;;;;;5061928;28;20072;-76
2023/09/03 03:51:15;;;;;;;38.55;13.23;;;11.50;99.90;;;;;;5046967;28;20040;-76
2023/09/03 03:53:42;;;;;;;78.95;16.23;;;11.50;99.90;;;;;;5056079;28;20048;-76
2023/09/03 03:56:10;;;;;;;15.98;10.57;;;11.40;99.90;;;;;;5056844;28;20082;-76
2023/09/03 03:58:37;;;;;;;26.67;13.18;;;11.30;99.90;;;;;;5044879;28;20102;-76
2023/09/03 04:01:17;;;;;;;66.93;23.85;;;11.30;99.90;;;;;;5056156;28;20417;-76
2023/09/03 04:03:44;;;;;;;55.00;19.90;;;11.30;99.90;;;;;;5036049;28;20055;-76
2023/09/03 04:06:11;;;;;;;12.30;11.20;;;11.20;99.90;;;;;;5093686;28;20060;-76
2023/09/03 04:08:38;;;;;;;11.48;10.48;;;11.20;99.90;;;;;;5044921;28;20399;-76
2023/09/03 04:11:07;;;;;;;26.25;13.57;;;11.20;99.90;;;;;;5068679;28;20094;-76
2023/09/03 04:13:33;;;;;;;25.67;15.00;;;11.20;99.90;;;;;;5049347;28;20080;-76
2023/09/03 04:15:59;;;;;;;12.18;11.07;;;11.20;99.90;;;;;;5036356;28;20092;-76
2023/09/03 04:18:26;;;;;;;13.45;12.25;;;11.10;99.90;;;;;;5031159;28;20523;-76
2023/09/03 04:20:54;;;;;;;14.00;12.80;;;11.20;99.90;;;;;;5053946;28;20503;-76
2023/09/03 04:23:20;;;;;;;14.15;12.85;;;11.20;99.90;;;;;;5045437;28;20117;-76
2023/09/03 04:25:46;;;;;;;15.48;14.07;;;11.20;99.90;;;;;;5062199;28;20044;-76
2023/09/03 04:28:13;;;;;;;16.08;14.50;;;11.30;99.90;;;;;;5050216;28;20876;-76
2023/09/03 04:30:39;;;;;;;16.35;14.77;;;11.30;99.90;;;;;;5062194;28;20123;-76
2023/09/03 04:33:07;;;;;;;17.95;15.35;;;11.30;99.90;;;;;;5057950;28;20036;-76
2023/09/03 04:35:37;;;;;;;18.77;16.77;;;11.30;99.90;;;;;;5063557;28;20051;-75
2023/09/03 04:38:04;;;;;;;16.10;14.70;;;11.30;99.90;;;;;;5055064;28;20048;-76
2023/09/03 04:40:37;;;;;;;16.23;14.63;;;11.30;99.90;;;;;;5060842;28;20566;-76
2023/09/03 04:43:03;;;;;;;14.70;13.40;;;11.30;99.90;;;;;;5058447;28;20487;-76
2023/09/03 04:45:30;;;;;;;13.65;12.35;;;11.30;99.90;;;;;;5035996;28;20045;-76
2023/09/03 04:47:56;;;;;;;13.18;11.88;;;11.20;99.90;;;;;;5057359;28;20410;-76
2023/09/03 04:50:23;;;;;;;13.60;12.38;;;11.20;99.90;;;;;;5056371;28;20410;-76
2023/09/03 04:52:49;;;;;;;14.63;13.32;;;11.20;99.90;;;;;;5043691;28;20372;-76
2023/09/03 04:55:15;;;;;;;13.02;11.82;;;11.20;99.90;;;;;;5048319;28;20091;-76
2023/09/03 04:57:41;;;;;;;12.90;11.80;;;11.20;99.90;;;;;;5062001;28;20094;-76
2023/09/03 05:00:07;;;;;;;12.50;11.40;;;11.20;99.90;;;;;;5049351;28;20064;-76
2023/09/03 05:02:34;;;;;;;12.38;11.18;;;11.20;99.90;;;;;;5046756;28;20048;-76
2023/09/03 05:05:00;;;;;;;11.88;10.98;;;11.20;99.90;;;;;;5063044;28;20062;-76
2023/09/03 05:07:26;;;;;;;11.77;10.88;;;11.20;99.90;;;;;;5061442;28;20040;-76
2023/09/03 05:09:55;;;;;;;11.90;10.90;;;11.20;99.90;;;;;;5051884;28;20083;-76
2023/09/03 05:12:21;;;;;;;10.10;9.30;;;11.20;99.90;;;;;;5065738;28;20044;-76
2023/09/03 05:14:48;;;;;;;8.30;7.60;;;11.10;99.90;;;;;;5043420;28;20395;-76
2023/09/03 05:17:13;;;;;;;9.98;9.15;;;11.10;99.90;;;;;;5041382;28;20122;-76
2023/09/03 05:19:40;;;;;;;9.63;8.75;;;11.20;99.90;;;;;;5055462;28;20086;-76
2023/09/03 05:22:11;;;;;;;9.90;9.10;;;11.20;99.90;;;;;;5047067;28;20036;-76
2023/09/03 05:24:37;;;;;;;10.18;9.25;;;11.20;99.90;;;;;;5036643;28;20048;-76
2023/09/03 05:27:03;;;;;;;10.68;9.77;;;11.30;99.90;;;;;;5032577;28;20114;-76
2023/09/03 05:29:29;;;;;;;8.45;7.75;;;11.30;99.90;;;;;;5050127;28;20040;-76
2023/09/03 05:31:55;;;;;;;13.90;12.57;;;11.20;99.90;;;;;;5060208;28;20059;-76
2023/09/03 05:34:20;;;;;;;10.88;9.88;;;11.20;99.90;;;;;;5063281;28;20037;-76
2023/09/03 05:36:46;;;;;;;11.00;10.00;;;11.30;99.90;;;;;;5065854;28;20055;-76
2023/09/03 05:39:12;;;;;;;11.35;10.35;;;11.30;99.90;;;;;;5058122;28;20418;-77
2023/09/03 05:41:38;;;;;;;13.68;12.48;;;11.30;99.90;;;;;;5052383;28;20067;-76
2023/09/03 05:44:09;;;;;;;13.55;12.25;;;11.40;99.90;;;;;;5061708;28;20143;-76
2023/09/03 05:46:35;;;;;;;12.40;11.40;;;11.40;99.90;;;;;;5058631;28;20044;-76
2023/09/03 05:49:01;;;;;;;13.10;12.10;;;11.40;99.90;;;;;;5061222;28;20127;-76
2023/09/03 05:51:27;;;;;;;13.32;12.07;;;11.50;99.90;;;;;;5041546;28;20052;-76
2023/09/03 05:53:53;;;;;;;13.98;12.68;;;11.50;99.90;;;;;;5041809;28;20407;-77
2023/09/03 05:56:19;;;;;;;13.25;12.15;;;11.60;99.90;;;;;;5076739;28;20679;-77
2023/09/03 05:58:45;;;;;;;17.23;15.57;;;11.60;99.90;;;;;;5044325;28;20055;-76
2023/09/03 06:01:12;;;;;;;13.40;12.00;;;11.70;99.90;;;;;;5065453;28;20048;-76
2023/09/03 06:03:39;;;;;;;14.18;12.98;;;11.70;99.90;;;;;;5063040;28;20056;-76
2023/09/03 06:06:06;;;;;;;14.25;12.95;;;11.80;99.90;;;;;;5051089;28;20601;-76
2023/09/03 06:08:33;;;;;;;21.00;18.98;;;11.80;99.90;;;;;;5052322;28;20053;-76
2023/09/03 06:11:00;;;;;;;17.23;15.63;;;11.90;99.90;;;;;;5058486;28;20036;-76
2023/09/03 06:13:26;;;;;;;16.90;15.25;;;11.90;99.90;;;;;;5050193;28;20807;-76
2023/09/03 06:15:53;;;;;;;15.75;14.27;;;12.00;99.90;;;;;;5060843;28;20075;-76
2023/09/03 06:18:20;;;;;;;16.30;14.82;;;12.10;99.90;;;;;;5059032;28;20555;-76
2023/09/03 06:20:46;;;;;;;16.65;15.18;;;12.10;99.90;;;;;;5058366;28;20146;-76
2023/09/03 06:23:15;;;;;;;15.23;13.93;;;12.20;99.90;;;;;;5056396;28;20041;-77
2023/09/03 06:25:42;;;;;;;16.73;15.23;;;12.30;99.90;;;;;;5060097;28;20048;-77
2023/09/03 06:28:09;;;;;;;18.80;16.95;;;12.30;99.90;;;;;;5044862;28;20338;-76
2023/09/03 06:30:34;;;;;;;15.93;14.57;;;12.40;99.90;;;;;;5065718;28;20126;-76
2023/09/03 06:33:00;;;;;;;17.48;15.98;;;12.50;99.90;;;;;;5044664;28;20262;-76
2023/09/03 06:35:29;;;;;;;16.95;15.45;;;12.50;99.90;;;;;;5042699;28;20047;-77
2023/09/03 06:37:58;;;;;;;16.90;15.50;;;12.60;99.90;;;;;;5042179;28;20040;-76
2023/09/03 06:40:25;;;;;;;17.58;15.95;;;12.70;99.90;;;;;;5045400;28;20052;-77
2023/09/03 06:42:52;;;;;;;14.95;13.68;;;12.70;99.90;;;;;;5076415;28;20060;-77
2023/09/03 06:45:18;;;;;;;15.63;14.27;;;12.80;99.90;;;;;;5061179;28;20041;-77
2023/09/03 06:47:45;;;;;;;17.40;15.80;;;12.80;99.90;;;;;;5048677;28;20320;-76
2023/09/03 06:50:11;;;;;;;17.25;15.85;;;12.90;99.90;;;;;;5060982;28;20129;-77
2023/09/03 06:52:38;;;;;;;15.90;14.52;;;12.90;99.90;;;;;;5095229;28;20052;-76
2023/09/03 06:55:04;;;;;;;25.70;22.23;;;13.00;99.90;;;;;;5044934;28;20064;-77
2023/09/03 06:57:31;;;;;;;18.25;16.63;;;13.10;99.90;;;;;;5091085;28;20924;-76
2023/09/03 06:59:57;;;;;;;19.33;17.73;;;13.20;99.90;;;;;;5042534;28;20041;-77
2023/09/03 07:02:23;;;;;;;18.25;16.65;;;13.30;99.90;;;;;;5042385;28;20127;-76
2023/09/03 07:04:49;;;;;;;19.48;17.77;;;13.30;99.90;;;;;;5055825;28;20045;-77
2023/09/03 07:07:15;;;;;;;18.05;16.45;;;13.40;99.90;;;;;;5060444;28;20545;-76
2023/09/03 07:09:41;;;;;;;17.40;15.88;;;13.50;99.90;;;;;;5038309;28;20153;-76
2023/09/03 07:12:07;;;;;;;18.25;16.38;;;13.60;99.90;;;;;;5077730;28;20044;-76
2023/09/03 07:14:34;;;;;;;18.05;16.48;;;13.70;99.90;;;;;;5056044;28;20456;-76
2023/09/03 07:17:01;;;;;;;17.40;15.70;;;13.80;99.90;;;;;;5069786;28;20047;-76
2023/09/03 07:19:28;;;;;;;18.08;16.35;;;13.90;99.90;;;;;;5045864;28;20064;-76
2023/09/03 07:21:53;;;;;;;17.70;16.05;;;14.00;99.90;;;;;;5068900;28;20484;-76
2023/09/03 07:24:19;;;;;;;16.60;14.95;;;14.10;99.90;;;;;;5057037;28;20182;-76
2023/09/03 07:26:45;;;;;;;15.52;14.13;;;14.30;99.90;;;;;;5082949;28;20097;-76
2023/09/03 07:29:12;;;;;;;16.10;14.73;;;14.40;99.90;;;;;;5038967;28;20776;-76
2023/09/03 07:31:41;;;;;;;15.52;14.23;;;14.60;99.90;;;;;;5045852;28;20037;-75
2023/09/03 07:34:12;;;;;;;15.80;14.20;;;14.80;99.90;;;;;;5050088;28;20444;-76
2023/09/03 07:36:39;;;;;;;14.25;13.05;;;15.00;99.90;;;;;;5063514;28;20045;-76
2023/09/03 07:39:05;;;;;;;13.80;12.60;;;15.10;99.90;;;;;;5044648;28;20045;-76
2023/09/03 07:41:32;;;;;;;14.00;12.68;;;15.30;99.90;;;;;;5053352;28;20056;-76
2023/09/03 07:43:58;;;;;;;13.85;12.65;;;15.50;99.90;;;;;;5062304;28;20040;-76
2023/09/03 07:46:24;;;;;;;13.80;12.60;;;15.60;99.90;;;;;;5064817;28;20434;-76
2023/09/03 07:48:50;;;;;;;12.13;11.07;;;15.80;99.90;;;;;;5064380;28;20571;-76
2023/09/03 07:51:17;;;;;;;11.70;10.70;;;16.00;99.90;;;;;;5049222;28;20178;-76
2023/09/03 07:53:43;;;;;;;11.20;10.13;;;16.20;99.90;;;;;;5064456;28;21069;-76
2023/09/03 07:56:09;;;;;;;11.43;10.32;;;16.40;99.90;;;;;;5067469;28;20216;-76
2023/09/03 07:58:34;;;;;;;9.75;8.75;;;16.50;99.90;;;;;;5061744;28;20494;-75
2023/09/03 08:01:04;;;;;;;8.90;8.00;;;16.70;99.90;;;;;;5072359;28;20672;-76
2023/09/03 08:03:34;;;;;;;7.88;6.97;;;16.80;99.90;;;;;;5060921;28;20048;-75
2023/09/03 08:06:03;;;;;;;8.70;6.13;;;17.00;99.90;;;;;;5061996;28;20083;-75
2023/09/03 08:08:29;;;;;;;7.25;6.55;;;17.00;99.90;;;;;;5053523;28;20044;-75
2023/09/03 08:10:55;;;;;;;7.95;6.30;;;17.10;99.90;;;;;;5062381;28;20051;-75
2023/09/03 08:13:22;;;;;;;9.00;5.72;;;17.20;99.90;;;;;;5050938;28;20044;-75
2023/09/03 08:15:48;;;;;;;6.53;5.82;;;17.40;99.90;;;;;;5051611;28;20040;-75
2023/09/03 08:18:15;;;;;;;6.68;5.70;;;17.50;99.90;;;;;;5051727;28;20041;-75
2023/09/03 08:20:44;;;;;;;5.93;4.45;;;17.70;99.90;;;;;;5065473;28;20045;-75
2023/09/03 08:23:13;;;;;;;7.32;6.63;;;17.80;99.90;;;;;;5068766;28;20279;-74
2023/09/03 08:25:40;;;;;;;6.82;5.75;;;17.90;99.90;;;;;;5060070;28;20057;-75
2023/09/03 08:28:08;;;;;;;6.32;4.30;;;18.00;99.90;;;;;;5058024;28;20076;-75
2023/09/03 08:30:33;;;;;;;6.30;5.47;;;18.10;99.90;;;;;;5063669;28;20044;-74
2023/09/03 08:32:59;;;;;;;7.30;5.30;;;18.20;99.90;;;;;;5043429;28;20055;-75
2023/09/03 08:35:25;;;;;;;4.72;4.07;;;18.20;99.90;;;;;;5057400;28;20032;-74
2023/09/03 08:37:51;;;;;;;5.82;4.05;;;18.20;99.90;;;;;;5059088;28;20550;-74
2023/09/03 08:40:20;;;;;;;7.45;4.72;;;18.30;99.90;;;;;;5064465;28;20051;-74
2023/09/03 08:42:49;;;;;;;5.90;4.60;;;18.30;99.90;;;;;;5055950;28;20063;-74
2023/09/03 08:45:19;;;;;;;8.80;4.90;;;18.40;99.90;;;;;;5049893;28;20471;-75
2023/09/03 08:47:46;;;;;;;6.80;4.63;;;18.40;99.90;;;;;;5047743;28;20139;-74
2023/09/03 08:50:13;;;;;;;6.45;4.50;;;18.50;99.90;;;;;;5062526;28;20040;-75
2023/09/03 08:52:40;;;;;;;5.85;3.88;;;18.50;99.90;;;;;;5065199;28;20076;-74
2023/09/03 08:55:07;;;;;;;6.95;4.85;;;18.60;99.90;;;;;;5070202;28;20040;-74
2023/09/03 08:57:34;;;;;;;5.70;4.20;;;18.60;99.90;;;;;;5043122;28;20048;-74
2023/09/03 09:00:08;;;;;;;5.63;3.92;;;18.70;99.90;;;;;;5046134;28;20140;-74
2023/09/03 09:02:35;;;;;;;6.15;3.80;;;18.80;99.90;;;;;;5056896;28;20057;-74
2023/09/03 09:05:05;;;;;;;6.18;3.58;;;18.90;99.90;;;;;;5063985;28;20317;-74
2023/09/03 09:07:32;;;;;;;6.07;4.50;;;19.00;99.90;;;;;;5068295;28;20041;-75
2023/09/03 09:10:01;;;;;;;4.60;3.20;;;19.10;99.90;;;;;;5060687;28;20045;-74
2023/09/03 09:12:50;;;;;;;5.07;3.50;;;19.20;99.90;;;;;;5046625;28;20129;-74
2023/09/03 09:15:16;;;;;;;4.32;2.70;;;19.40;99.90;;;;;;5044202;28;20115;-74
2023/09/03 09:17:44;;;;;;;6.72;3.42;;;19.50;99.90;;;;;;5047915;28;20148;-74
2023/09/03 09:20:17;;;;;;;6.45;3.40;;;19.70;99.90;;;;;;5066008;28;20051;-74
2023/09/03 09:22:48;;;;;;;6.13;2.70;;;19.70;99.90;;;;;;5046836;28;20040;-74
2023/09/03 09:25:22;;;;;;;4.90;2.80;;;19.80;99.90;;;;;;5053842;28;20041;-74
2023/09/03 09:27:48;;;;;;;4.82;2.60;;;19.80;99.90;;;;;;5062408;28;20498;-74
2023/09/03 09:30:16;;;;;;;6.00;2.80;;;19.90;99.90;;;;;;5064892;28;20123;-74
2023/09/03 09:32:43;;;;;;;5.50;3.60;;;19.90;99.90;;;;;;5078261;28;20064;-74
2023/09/03 09:35:22;;;;;;;5.35;3.90;;;20.00;99.90;;;;;;5059679;28;20157;-74
2023/09/03 09:37:48;;;;;;;7.15;3.40;;;20.00;99.90;;;;;;5044337;28;20055;-74
2023/09/03 09:40:25;;;;;;;4.25;2.75;;;20.10;99.90;;;;;;5044027;28;20032;-74
2023/09/03 09:42:53;;;;;;;5.43;3.45;;;20.10;99.90;;;;;;5065740;28;20041;-74
2023/09/03 09:45:19;;;;;;;4.82;2.85;;;20.10;99.90;;;;;;5058100;28;20068;-74
2023/09/03 09:47:49;;;;;;;4.40;2.80;;;20.10;99.90;;;;;;5093815;27;20047;-74
2023/09/03 09:50:31;;;;;;;4.00;2.30;;;20.20;99.90;;;;;;5060758;28;20036;-74
2023/09/03 09:52:57;;;;;;;4.70;2.08;;;20.30;99.90;;;;;;5071499;28;20036;-74
2023/09/03 09:55:24;;;;;;;3.20;2.00;;;20.40;99.90;;;;;;5063404;28;20037;-74
2023/09/03 09:57:51;;;;;;;3.70;2.08;;;20.50;99.90;;;;;;5066276;28;20106;-74
2023/09/03 10:00:35;;;;;;;4.90;2.15;;;20.50;99.90;;;;;;5058938;28;20462;-74
2023/09/03 10:03:01;;;;;;;5.50;1.95;;;20.60;99.90;;;;;;5054540;28;20119;-74
2023/09/03 10:05:26;;;;;;;3.85;1.75;;;20.60;99.90;;;;;;5067297;28;20155;-74
2023/09/03 10:07:55;;;;;;;4.35;1.80;;;20.70;99.90;;;;;;5062983;28;20518;-74
2023/09/03 10:10:21;;;;;;;3.92;1.80;;;20.70;99.90;;;;;;5060893;28;20052;-74
2023/09/03 10:12:47;;;;;;;2.75;1.52;;;20.80;99.90;;;;;;5050509;28;20059;-74
2023/09/03 10:15:13;;;;;;;3.83;2.00;;;20.80;99.90;;;;;;5048573;28;20949;-74
2023/09/03 10:17:50;;;;;;;4.35;1.98;;;20.90;99.90;;;;;;5064237;28;20045;-74
2023/09/03 10:20:17;;;;;;;2.80;1.58;;;21.10;99.90;;;;;;5071204;28;20101;-74
2023/09/03 10:22:47;;;;;;;3.00;1.40;;;21.20;99.90;;;;;;5043814;28;20040;-74
2023/09/03 10:25:16;;;;;;;2.95;1.60;;;21.30;99.90;;;;;;5081458;28;20047;-74
2023/09/03 10:27:50;;;;;;;4.10;2.00;;;21.30;99.90;;;;;;5074840;28;20075;-74
2023/09/03 10:30:19;;;;;;;3.53;1.88;;;21.40;99.90;;;;;;5063632;28;20047;-74
2023/09/03 10:32:45;;;;;;;2.60;1.45;;;21.40;99.90;;;;;;5058613;28;20036;-74
2023/09/03 10:35:12;;;;;;;2.78;1.40;;;21.50;99.90;;;;;;5068046;28;20046;-74
2023/09/03 10:37:40;;;;;;;2.67;1.70;;;21.50;99.90;;;;;;5063848;28;20159;-74
2023/09/03 10:40:23;;;;;;;3.40;1.60;;;21.50;99.90;;;;;;5061286;28;20043;-74
2023/09/03 10:42:51;;;;;;;4.13;1.90;;;21.60;99.90;;;;;;5054911;28;20454;-74
2023/09/03 10:45:20;;;;;;;5.25;1.95;;;21.70;99.90;;;;;;5065687;28;20486;-74
2023/09/03 10:48:05;;;;;;;3.43;2.03;;;21.80;99.90;;;;;;5060898;28;20056;-74
2023/09/03 10:50:50;;;;;;;3.55;1.60;;;21.80;99.90;;;;;;5043986;28;20317;-74
2023/09/03 10:53:35;;;;;;;4.20;2.00;;;21.80;99.90;;;;;;5061923;28;20080;-74
2023/09/03 10:56:15;;;;;;;3.90;1.77;;;21.90;99.90;;;;;;5067492;28;20052;-74
2023/09/03 10:59:10;;;;;;;2.67;1.52;;;22.00;99.90;;;;;;5047109;28;20044;-74
2023/09/03 11:01:36;;;;;;;2.63;1.80;;;22.10;99.90;;;;;;5040592;28;20052;-74
2023/09/03 11:04:04;;;;;;;3.65;1.50;;;22.10;99.90;;;;;;5042628;28;21012;-74
2023/09/03 11:06:34;;;;;;;2.80;1.67;;;22.20;99.90;;;;;;5059234;28;20115;-74
2023/09/03 11:09:12;;;;;;;2.15;1.50;;;22.30;99.90;;;;;;5081187;28;20040;-74
2023/09/03 11:11:38;;;;;;;3.72;1.90;;;22.40;99.90;;;;;;5061156;28;20445;-74
2023/09/03 11:14:06;;;;;;;2.95;1.77;;;22.60;99.90;;;;;;5068596;28;20118;-74
2023/09/03 11:16:33;;;;;;;2.97;1.60;;;22.70;99.90;;;;;;5048516;28;20033;-74
2023/09/03 11:19:00;;;;;;;3.53;1.83;;;22.80;99.90;;;;;;5054800;28;20029;-74
2023/09/03 11:21:27;;;;;;;3.83;2.03;;;22.90;99.90;;;;;;5060299;28;20557;-74
2023/09/03 11:24:14;;;;;;;5.50;2.10;;;23.00;99.90;;;;;;5050140;28;20052;-74
2023/09/03 11:26:44;;;;;;;3.50;1.90;;;23.00;99.90;;;;;;5045329;28;20047;-74
2023/09/03 11:29:20;;;;;;;3.20;1.60;;;22.90;99.90;;;;;;5058149;28;20032;-74
2023/09/03 11:31:47;;;;;;;2.90;1.67;;;22.70;99.90;;;;;;5058956;28;20129;-74
2023/09/03 11:34:20;;;;;;;2.60;1.40;;;22.60;99.90;;;;;;5061098;28;20067;-74
2023/09/03 11:36:46;;;;;;;2.55;1.10;;;22.60;99.90;;;;;;5062580;28;20075;-74
2023/09/03 11:39:16;;;;;;;2.35;1.00;;;22.50;99.90;;;;;;5061489;28;20072;-74
2023/09/03 11:41:43;;;;;;;1.88;1.13;;;22.50;99.90;;;;;;5061442;28;20043;-74
2023/09/03 11:44:16;;;;;;;3.13;1.20;;;22.50;99.90;;;;;;5067083;28;20055;-74
2023/09/03 11:46:57;;;;;;;3.17;1.48;;;22.60;99.90;;;;;;5044782;28;20052;-74
2023/09/03 11:49:22;;;;;;;4.10;1.27;;;22.70;99.90;;;;;;5049885;28;20446;-74
2023/09/03 11:51:48;;;;;;;3.53;1.00;;;22.80;99.90;;;;;;5065879;28;20044;-74
2023/09/03 11:54:24;;;;;;;2.42;1.30;;;22.90;99.90;;;;;;5058641;28;20071;-74
2023/09/03 11:56:51;;;;;;;2.35;1.20;;;22.90;99.90;;;;;;5044114;28;20387;-74
2023/09/03 11:59:17;;;;;;;3.00;0.98;;;22.90;99.90;;;;;;5064077;28;20150;-74
2023/09/03 12:01:43;;;;;;;2.30;1.45;;;22.90;99.90;;;;;;5047720;28;20601;-74
2023/09/03 12:04:09;;;;;;;4.10;1.40;;;23.00;99.90;;;;;;5044848;28;20496;-74
2023/09/03 12:06:36;;;;;;;1.88;1.20;;;23.10;99.90;;;;;;5059010;28;20040;-74
2023/09/03 12:09:02;;;;;;;2.63;1.00;;;23.00;99.90;;;;;;5037928;28;20813;-74
2023/09/03 12:11:32;;;;;;;2.55;1.10;;;23.10;99.90;;;;;;5061320;28;20440;-74
2023/09/03 12:13:57;;;;;;;2.22;1.25;;;23.00;99.90;;;;;;5063735;28;20048;-74
2023/09/03 12:16:24;;;;;;;1.65;0.90;;;23.00;99.90;;;;;;5047779;28;20117;-74
2023/09/03 12:19:01;;;;;;;2.50;1.00;;;23.10;99.90;;;;;;5065295;28;20049;-74
2023/09/03 12:21:37;;;;;;;2.72;1.70;;;23.20;99.90;;;;;;5051298;28;20043;-74
2023/09/03 12:24:05;;;;;;;3.30;1.10;;;23.30;99.90;;;;;;5067113;28;20032;-74
2023/09/03 12:26:34;;;;;;;2.17;1.40;;;23.30;99.90;;;;;;5045777;28;20079;-74
2023/09/03 12:29:01;;;;;;;2.53;1.20;;;23.30;99.90;;;;;;5061764;28;20059;-74
2023/09/03 12:31:44;;;;;;;3.78;1.33;;;23.30;99.90;;;;;;5061107;28;20044;-74
2023/09/03 12:34:32;;;;;;;2.95;1.23;;;23.30;99.90;;;;;;5048455;28;20047;-74
2023/09/03 12:36:58;;;;;;;4.50;1.33;;;23.30;99.90;;;;;;5057635;28;20053;-74
2023/09/03 12:39:38;;;;;;;3.03;1.40;;;23.30;99.90;;;;;;5047646;28;20032;-74
2023/09/03 12:42:07;;;;;;;2.83;1.60;;;23.10;99.90;;;;;;5052018;28;20615;-74